sensor_id;sensor_type;location;lat;lon;timestamp;temperature;humidity
20125;DHT22;10223;50.862;4.360;2023-01-05T00:01:36;11.60;99.90
20125;DHT22;10223;50.862;4.360;2023-01-05T00:04:04;11.50;99.90
20125;DHT22;10223;50.862;4.360;2023-01-05T00:06:32;11.40;99.90
20125;DHT22;10223;50.862;4.360;2023-01-05T00:08:59;11.40;99.90
20125;DHT22;10223;50.862;4.360;2023-01-05T00:11:26;11.40;99.90
20125;DHT22;10223;50.862;4.360;2023-01-05T00:14:14;11.40;99.90
20125;DHT22;10223;50.862;4.360;2023-01-05T00:16:58;11.50;99.90
20125;DHT22;10223;50.862;4.360;2023-01-05T00:19:43;11.30;99.90
20125;DHT22;10223;50.862;4.360;2023-01-05T00:22:28;11.30;99.90
20125;DHT22;10223;50.862;4.360;2023-01-05T00:25:00;11.30;99.90
20125;DHT22;10223;50.862;4.360;2023-01-05T00:27:27;11.30;99.90
20125;DHT22;10223;50.862;4.360;2023-01-05T00:29:56;11.30;99.90
20125;DHT22;10223;50.862;4.360;2023-01-05T00:32:23;11.30;99.90
20125;DHT22;10223;50.862;4.360;2023-01-05T00:34:50;11.30;99.90
20125;DHT22;10223;50.862;4.360;2023-01-05T00:37:20;11.30;99.90
20125;DHT22;10223;50.862;4.360;2023-01-05T00:39:47;11.30;99.90
20125;DHT22;10223;50.862;4.360;2023-01-05T00:42:14;11.30;99.90
20125;DHT22;10223;50.862;4.360;2023-01-05T00:44:41;11.30;99.90
20125;DHT22;10223;50.862;4.360;2023-01-05T00:47:09;11.40;99.90
20125;DHT22;10223;50.862;4.360;2023-01-05T00:49:36;11.40;99.90
20125;DHT22;10223;50.862;4.360;2023-01-05T00:52:04;11.40;99.90
20125;DHT22;10223;50.862;4.360;2023-01-05T00:54:31;11.40;99.90
20125;DHT22;10223;50.862;4.360;2023-01-05T00:56:58;11.40;99.90
20125;DHT22;10223;50.862;4.360;2023-01-05T00:59:25;11.50;99.90
20125;DHT22;10223;50.862;4.360;2023-01-05T01:01:53;11.40;99.90
20125;DHT22;10223;50.862;4.360;2023-01-05T01:04:21;11.40;99.90
20125;DHT22;10223;50.862;4.360;2023-01-05T01:06:49;11.40;99.90
20125;DHT22;10223;50.862;4.360;2023-01-05T01:09:16;11.30;99.90
20125;DHT22;10223;50.862;4.360;2023-01-05T01:11:43;11.40;99.90
20125;DHT22;10223;50.862;4.360;2023-01-05T01:14:11;11.30;99.90
20125;DHT22;10223;50.862;4.360;2023-01-05T01:16:39;11.30;99.90
20125;DHT22;10223;50.862;4.360;2023-01-05T01:19:06;11.40;99.90
20125;DHT22;10223;50.862;4.360;2023-01-05T01:21:34;11.40;99.90
20125;DHT22;10223;50.862;4.360;2023-01-05T01:24:01;11.30;99.90
20125;DHT22;10223;50.862;4.360;2023-01-05T01:26:28;11.40;99.90
20125;DHT22;10223;50.862;4.360;2023-01-05T01:28:55;11.30;99.90
20125;DHT22;10223;50.862;4.360;2023-01-05T01:31:22;11.30;99.90
20125;DHT22;10223;50.862;4.360;2023-01-05T01:33:49;11.40;99.90
20125;DHT22;10223;50.862;4.360;2023-01-05T01:36:16;11.20;99.90
20125;DHT22;10223;50.862;4.360;2023-01-05T01:38:45;11.20;99.90
20125;DHT22;10223;50.862;4.360;2023-01-05T01:41:11;11.20;99.90
20125;DHT22;10223;50.862;4.360;2023-01-05T01:43:42;11.10;99.90
20125;DHT22;10223;50.862;4.360;2023-01-05T01:46:10;11.20;99.90
20125;DHT22;10223;50.862;4.360;2023-01-05T01:48:39;11.20;99.90
20125;DHT22;10223;50.862;4.360;2023-01-05T01:51:10;11.20;99.90
20125;DHT22;10223;50.862;4.360;2023-01-05T01:53:40;11.10;99.90
20125;DHT22;10223;50.862;4.360;2023-01-05T01:56:11;11.20;99.90
20125;DHT22;10223;50.862;4.360;2023-01-05T01:58:41;11.20;99.90
20125;DHT22;10223;50.862;4.360;2023-01-05T02:01:08;11.30;99.90
20125;DHT22;10223;50.862;4.360;2023-01-05T02:03:35;11.30;99.90
20125;DHT22;10223;50.862;4.360;2023-01-05T02:06:03;11.40;99.90
20125;DHT22;10223;50.862;4.360;2023-01-05T02:08:30;11.30;99.90
20125;DHT22;10223;50.862;4.360;2023-01-05T02:11:12;11.30;99.90
20125;DHT22;10223;50.862;4.360;2023-01-05T02:13:50;11.20;99.90
20125;DHT22;10223;50.862;4.360;2023-01-05T02:16:23;11.30;99.90
20125;DHT22;10223;50.862;4.360;2023-01-05T02:19:18;11.30;99.90
20125;DHT22;10223;50.862;4.360;2023-01-05T02:22:00;11.20;99.90
20125;DHT22;10223;50.862;4.360;2023-01-05T02:24:59;11.30;99.90
20125;DHT22;10223;50.862;4.360;2023-01-05T02:27:47;11.30;99.90
20125;DHT22;10223;50.862;4.360;2023-01-05T02:33:20;11.30;99.90
20125;DHT22;10223;50.862;4.360;2023-01-05T02:35:57;11.20;99.90
20125;DHT22;10223;50.862;4.360;2023-01-05T02:38:33;11.30;99.90
20125;DHT22;10223;50.862;4.360;2023-01-05T02:41:06;11.20;99.90
20125;DHT22;10223;50.862;4.360;2023-01-05T02:43:34;11.40;99.90
20125;DHT22;10223;50.862;4.360;2023-01-05T02:46:01;11.20;99.90
20125;DHT22;10223;50.862;4.360;2023-01-05T02:48:30;11.30;99.90
20125;DHT22;10223;50.862;4.360;2023-01-05T02:51:00;11.20;99.90
20125;DHT22;10223;50.862;4.360;2023-01-05T02:53:30;11.10;99.90
20125;DHT22;10223;50.862;4.360;2023-01-05T02:56:01;11.10;99.90
20125;DHT22;10223;50.862;4.360;2023-01-05T02:58:33;11.20;99.90
20125;DHT22;10223;50.862;4.360;2023-01-05T03:01:03;11.20;99.90
20125;DHT22;10223;50.862;4.360;2023-01-05T03:03:36;11.30;99.90
20125;DHT22;10223;50.862;4.360;2023-01-05T03:06:09;11.30;99.90
20125;DHT22;10223;50.862;4.360;2023-01-05T03:08:41;11.30;99.90
20125;DHT22;10223;50.862;4.360;2023-01-05T03:11:11;11.30;99.90
20125;DHT22;10223;50.862;4.360;2023-01-05T03:14:02;11.30;99.90
20125;DHT22;10223;50.862;4.360;2023-01-05T03:16:35;11.30;99.90
20125;DHT22;10223;50.862;4.360;2023-01-05T03:19:09;11.40;99.90
20125;DHT22;10223;50.862;4.360;2023-01-05T03:21:56;11.30;99.90
20125;DHT22;10223;50.862;4.360;2023-01-05T03:24:42;11.40;99.90
20125;DHT22;10223;50.862;4.360;2023-01-05T03:27:27;11.30;99.90
20125;DHT22;10223;50.862;4.360;2023-01-05T03:30:12;11.40;99.90
20125;DHT22;10223;50.862;4.360;2023-01-05T03:33:03;11.40;99.90
20125;DHT22;10223;50.862;4.360;2023-01-05T03:35:54;11.40;99.90
20125;DHT22;10223;50.862;4.360;2023-01-05T03:38:26;11.40;99.90
20125;DHT22;10223;50.862;4.360;2023-01-05T03:40:56;11.40;99.90
20125;DHT22;10223;50.862;4.360;2023-01-05T03:43:24;11.40;99.90
20125;DHT22;10223;50.862;4.360;2023-01-05T03:45:53;11.40;99.90
20125;DHT22;10223;50.862;4.360;2023-01-05T03:48:21;11.40;99.90
20125;DHT22;10223;50.862;4.360;2023-01-05T03:50:48;11.40;99.90
20125;DHT22;10223;50.862;4.360;2023-01-05T03:53:17;11.50;99.90
20125;DHT22;10223;50.862;4.360;2023-01-05T03:55:44;11.40;99.90
20125;DHT22;10223;50.862;4.360;2023-01-05T03:58:11;11.40;99.90
20125;DHT22;10223;50.862;4.360;2023-01-05T04:00:37;11.40;99.90
20125;DHT22;10223;50.862;4.360;2023-01-05T04:03:04;11.40;99.90
20125;DHT22;10223;50.862;4.360;2023-01-05T04:05:33;11.40;99.90
20125;DHT22;10223;50.862;4.360;2023-01-05T04:08:00;11.40;99.90
20125;DHT22;10223;50.862;4.360;2023-01-05T04:10:28;11.40;99.90
20125;DHT22;10223;50.862;4.360;2023-01-05T04:12:55;11.40;99.90
20125;DHT22;10223;50.862;4.360;2023-01-05T04:15:22;11.40;99.90
20125;DHT22;10223;50.862;4.360;2023-01-05T04:17:49;11.40;99.90
20125;DHT22;10223;50.862;4.360;2023-01-05T04:20:16;11.40;99.90
20125;DHT22;10223;50.862;4.360;2023-01-05T04:22:43;11.40;99.90
20125;DHT22;10223;50.862;4.360;2023-01-05T04:25:10;11.40;99.90
20125;DHT22;10223;50.862;4.360;2023-01-05T04:27:38;11.50;99.90
20125;DHT22;10223;50.862;4.360;2023-01-05T04:30:06;11.50;99.90
20125;DHT22;10223;50.862;4.360;2023-01-05T04:32:33;11.40;99.90
20125;DHT22;10223;50.862;4.360;2023-01-05T04:35:00;11.40;99.90
20125;DHT22;10223;50.862;4.360;2023-01-05T04:37:27;11.40;99.90
20125;DHT22;10223;50.862;4.360;2023-01-05T04:39:54;11.40;99.90
20125;DHT22;10223;50.862;4.360;2023-01-05T04:42:21;11.50;99.90
20125;DHT22;10223;50.862;4.360;2023-01-05T04:44:49;11.50;99.90
20125;DHT22;10223;50.862;4.360;2023-01-05T04:47:16;11.50;99.90
20125;DHT22;10223;50.862;4.360;2023-01-05T04:49:43;11.50;99.90
20125;DHT22;10223;50.862;4.360;2023-01-05T04:52:10;11.40;99.90
20125;DHT22;10223;50.862;4.360;2023-01-05T04:54:37;11.40;99.90
20125;DHT22;10223;50.862;4.360;2023-01-05T04:57:04;11.50;99.90
20125;DHT22;10223;50.862;4.360;2023-01-05T04:59:31;11.40;99.90
20125;DHT22;10223;50.862;4.360;2023-01-05T05:01:59;11.50;99.90
20125;DHT22;10223;50.862;4.360;2023-01-05T05:04:26;11.40;99.90
20125;DHT22;10223;50.862;4.360;2023-01-05T05:06:53;11.40;99.90
20125;DHT22;10223;50.862;4.360;2023-01-05T05:09:20;11.40;99.90
20125;DHT22;10223;50.862;4.360;2023-01-05T05:11:47;11.40;99.90
20125;DHT22;10223;50.862;4.360;2023-01-05T05:14:14;11.40;99.90
20125;DHT22;10223;50.862;4.360;2023-01-05T05:16:50;11.40;99.90
20125;DHT22;10223;50.862;4.360;2023-01-05T05:19:18;11.40;99.90
20125;DHT22;10223;50.862;4.360;2023-01-05T05:21:48;11.40;99.90
20125;DHT22;10223;50.862;4.360;2023-01-05T05:24:15;11.30;99.90
20125;DHT22;10223;50.862;4.360;2023-01-05T05:26:42;11.30;99.90
20125;DHT22;10223;50.862;4.360;2023-01-05T05:29:09;11.30;99.90
20125;DHT22;10223;50.862;4.360;2023-01-05T05:31:36;11.30;99.90
20125;DHT22;10223;50.862;4.360;2023-01-05T05:34:03;11.40;99.90
20125;DHT22;10223;50.862;4.360;2023-01-05T05:36:32;11.20;99.90
20125;DHT22;10223;50.862;4.360;2023-01-05T05:39:00;11.20;99.90
20125;DHT22;10223;50.862;4.360;2023-01-05T05:41:27;11.20;99.90
20125;DHT22;10223;50.862;4.360;2023-01-05T05:43:54;11.20;99.90
20125;DHT22;10223;50.862;4.360;2023-01-05T05:46:25;11.10;99.90
20125;DHT22;10223;50.862;4.360;2023-01-05T05:48:52;11.20;99.90
20125;DHT22;10223;50.862;4.360;2023-01-05T05:51:19;11.20;99.90
20125;DHT22;10223;50.862;4.360;2023-01-05T05:53:47;11.20;99.90
20125;DHT22;10223;50.862;4.360;2023-01-05T05:56:14;11.10;99.90
20125;DHT22;10223;50.862;4.360;2023-01-05T05:58:42;11.20;99.90
20125;DHT22;10223;50.862;4.360;2023-01-05T06:01:09;11.20;99.90
20125;DHT22;10223;50.862;4.360;2023-01-05T06:03:36;11.20;99.90
20125;DHT22;10223;50.862;4.360;2023-01-05T06:06:03;11.20;99.90
20125;DHT22;10223;50.862;4.360;2023-01-05T06:08:30;11.20;99.90
20125;DHT22;10223;50.862;4.360;2023-01-05T06:10:59;11.30;99.90
20125;DHT22;10223;50.862;4.360;2023-01-05T06:13:26;11.20;99.90
20125;DHT22;10223;50.862;4.360;2023-01-05T06:15:52;11.20;99.90
20125;DHT22;10223;50.862;4.360;2023-01-05T06:18:19;11.20;99.90
20125;DHT22;10223;50.862;4.360;2023-01-05T06:20:47;11.20;99.90
20125;DHT22;10223;50.862;4.360;2023-01-05T06:23:14;11.30;99.90
20125;DHT22;10223;50.862;4.360;2023-01-05T06:25:41;11.10;99.90
20125;DHT22;10223;50.862;4.360;2023-01-05T06:28:09;11.10;99.90
20125;DHT22;10223;50.862;4.360;2023-01-05T06:30:36;11.10;99.90
20125;DHT22;10223;50.862;4.360;2023-01-05T06:33:03;11.10;99.90
20125;DHT22;10223;50.862;4.360;2023-01-05T06:35:31;11.10;99.90
20125;DHT22;10223;50.862;4.360;2023-01-05T06:37:58;11.20;99.90
20125;DHT22;10223;50.862;4.360;2023-01-05T06:40:24;11.10;99.90
20125;DHT22;10223;50.862;4.360;2023-01-05T06:42:51;11.10;99.90
20125;DHT22;10223;50.862;4.360;2023-01-05T06:45:20;11.10;99.90
20125;DHT22;10223;50.862;4.360;2023-01-05T06:47:47;11.10;99.90
20125;DHT22;10223;50.862;4.360;2023-01-05T06:50:14;11.10;99.90
20125;DHT22;10223;50.862;4.360;2023-01-05T06:52:40;11.00;99.90
20125;DHT22;10223;50.862;4.360;2023-01-05T06:55:12;11.10;99.90
20125;DHT22;10223;50.862;4.360;2023-01-05T06:57:39;11.10;99.90
20125;DHT22;10223;50.862;4.360;2023-01-05T07:00:08;11.10;99.90
20125;DHT22;10223;50.862;4.360;2023-01-05T07:02:36;11.10;99.90
20125;DHT22;10223;50.862;4.360;2023-01-05T07:05:04;11.00;99.90
20125;DHT22;10223;50.862;4.360;2023-01-05T07:07:31;11.10;99.90
20125;DHT22;10223;50.862;4.360;2023-01-05T07:09:59;11.10;99.90
20125;DHT22;10223;50.862;4.360;2023-01-05T07:12:26;11.10;99.90
20125;DHT22;10223;50.862;4.360;2023-01-05T07:14:52;11.10;99.90
20125;DHT22;10223;50.862;4.360;2023-01-05T07:17:19;11.10;99.90
20125;DHT22;10223;50.862;4.360;2023-01-05T07:19:48;11.10;99.90
20125;DHT22;10223;50.862;4.360;2023-01-05T07:22:14;11.20;99.90
20125;DHT22;10223;50.862;4.360;2023-01-05T07:24:41;11.10;99.90
20125;DHT22;10223;50.862;4.360;2023-01-05T07:27:08;11.10;99.90
20125;DHT22;10223;50.862;4.360;2023-01-05T07:29:35;11.10;99.90
20125;DHT22;10223;50.862;4.360;2023-01-05T07:32:03;11.00;99.90
20125;DHT22;10223;50.862;4.360;2023-01-05T07:34:30;11.00;99.90
20125;DHT22;10223;50.862;4.360;2023-01-05T07:36:58;11.00;99.90
20125;DHT22;10223;50.862;4.360;2023-01-05T07:39:25;11.10;99.90
20125;DHT22;10223;50.862;4.360;2023-01-05T07:41:52;11.10;99.90
20125;DHT22;10223;50.862;4.360;2023-01-05T07:44:19;11.10;99.90
20125;DHT22;10223;50.862;4.360;2023-01-05T07:46:46;11.00;99.90
20125;DHT22;10223;50.862;4.360;2023-01-05T07:49:13;11.10;99.90
20125;DHT22;10223;50.862;4.360;2023-01-05T07:51:41;11.00;99.90
20125;DHT22;10223;50.862;4.360;2023-01-05T07:54:09;11.10;99.90
20125;DHT22;10223;50.862;4.360;2023-01-05T07:56:36;11.00;99.90
20125;DHT22;10223;50.862;4.360;2023-01-05T07:59:03;11.00;99.90
20125;DHT22;10223;50.862;4.360;2023-01-05T08:01:30;11.10;99.90
20125;DHT22;10223;50.862;4.360;2023-01-05T08:03:56;11.00;99.90
20125;DHT22;10223;50.862;4.360;2023-01-05T08:06:23;11.00;99.90
20125;DHT22;10223;50.862;4.360;2023-01-05T08:08:50;10.90;99.90
20125;DHT22;10223;50.862;4.360;2023-01-05T08:11:19;11.10;99.90
20125;DHT22;10223;50.862;4.360;2023-01-05T08:13:46;10.90;99.90
20125;DHT22;10223;50.862;4.360;2023-01-05T08:16:28;11.00;99.90
20125;DHT22;10223;50.862;4.360;2023-01-05T08:18:55;10.90;99.90
20125;DHT22;10223;50.862;4.360;2023-01-05T08:21:22;11.00;99.90
20125;DHT22;10223;50.862;4.360;2023-01-05T08:23:49;10.90;99.90
20125;DHT22;10223;50.862;4.360;2023-01-05T08:26:20;10.90;99.90
20125;DHT22;10223;50.862;4.360;2023-01-05T08:28:48;10.90;99.90
20125;DHT22;10223;50.862;4.360;2023-01-05T08:31:17;10.90;99.90
20125;DHT22;10223;50.862;4.360;2023-01-05T08:33:44;11.00;99.90
20125;DHT22;10223;50.862;4.360;2023-01-05T08:36:12;10.90;99.90
20125;DHT22;10223;50.862;4.360;2023-01-05T08:38:40;10.90;99.90
20125;DHT22;10223;50.862;4.360;2023-01-05T08:41:14;10.90;99.90
20125;DHT22;10223;50.862;4.360;2023-01-05T08:43:43;10.90;99.90
20125;DHT22;10223;50.862;4.360;2023-01-05T08:46:14;10.90;99.90
20125;DHT22;10223;50.862;4.360;2023-01-05T08:48:41;10.90;99.90
20125;DHT22;10223;50.862;4.360;2023-01-05T08:51:08;11.00;99.90
20125;DHT22;10223;50.862;4.360;2023-01-05T08:53:35;10.90;99.90
20125;DHT22;10223;50.862;4.360;2023-01-05T08:56:02;11.00;99.90
20125;DHT22;10223;50.862;4.360;2023-01-05T08:58:29;10.90;99.90
20125;DHT22;10223;50.862;4.360;2023-01-05T09:00:57;10.90;99.90
20125;DHT22;10223;50.862;4.360;2023-01-05T09:03:24;11.00;99.90
20125;DHT22;10223;50.862;4.360;2023-01-05T09:05:52;11.10;99.90
20125;DHT22;10223;50.862;4.360;2023-01-05T09:08:23;11.20;99.90
20125;DHT22;10223;50.862;4.360;2023-01-05T09:10:50;11.20;99.90
20125;DHT22;10223;50.862;4.360;2023-01-05T09:13:17;11.10;99.90
20125;DHT22;10223;50.862;4.360;2023-01-05T09:15:44;11.10;99.90
20125;DHT22;10223;50.862;4.360;2023-01-05T09:18:12;11.20;99.90
20125;DHT22;10223;50.862;4.360;2023-01-05T09:20:39;11.30;99.90
20125;DHT22;10223;50.862;4.360;2023-01-05T09:23:06;11.30;99.90
20125;DHT22;10223;50.862;4.360;2023-01-05T09:25:33;11.30;99.90
20125;DHT22;10223;50.862;4.360;2023-01-05T09:28:00;11.30;99.90
20125;DHT22;10223;50.862;4.360;2023-01-05T09:30:26;11.40;99.90
20125;DHT22;10223;50.862;4.360;2023-01-05T09:32:53;11.40;99.90
20125;DHT22;10223;50.862;4.360;2023-01-05T09:35:22;11.40;99.90
20125;DHT22;10223;50.862;4.360;2023-01-05T09:37:48;11.40;99.90
20125;DHT22;10223;50.862;4.360;2023-01-05T09:40:15;11.40;99.90
20125;DHT22;10223;50.862;4.360;2023-01-05T09:42:44;11.40;99.90
20125;DHT22;10223;50.862;4.360;2023-01-05T09:45:14;11.40;99.90
20125;DHT22;10223;50.862;4.360;2023-01-05T09:47:43;11.50;99.90
20125;DHT22;10223;50.862;4.360;2023-01-05T09:50:18;11.70;99.90
20125;DHT22;10223;50.862;4.360;2023-01-05T09:52:47;11.70;99.90
20125;DHT22;10223;50.862;4.360;2023-01-05T09:55:15;11.60;99.90
20125;DHT22;10223;50.862;4.360;2023-01-05T09:57:49;11.60;99.90
20125;DHT22;10223;50.862;4.360;2023-01-05T10:00:18;11.60;99.90
20125;DHT22;10223;50.862;4.360;2023-01-05T10:02:50;11.60;99.90
20125;DHT22;10223;50.862;4.360;2023-01-05T10:05:18;11.70;99.90
20125;DHT22;10223;50.862;4.360;2023-01-05T10:07:51;11.90;99.90
20125;DHT22;10223;50.862;4.360;2023-01-05T10:10:31;11.90;99.90
20125;DHT22;10223;50.862;4.360;2023-01-05T10:13:06;12.00;99.90
20125;DHT22;10223;50.862;4.360;2023-01-05T10:15:37;12.20;99.90
20125;DHT22;10223;50.862;4.360;2023-01-05T10:18:10;12.40;99.90
20125;DHT22;10223;50.862;4.360;2023-01-05T10:20:45;12.50;99.90
20125;DHT22;10223;50.862;4.360;2023-01-05T10:23:28;12.50;99.90
20125;DHT22;10223;50.862;4.360;2023-01-05T10:26:00;12.30;99.90
20125;DHT22;10223;50.862;4.360;2023-01-05T10:28:35;12.30;99.90
20125;DHT22;10223;50.862;4.360;2023-01-05T10:31:11;12.20;99.90
20125;DHT22;10223;50.862;4.360;2023-01-05T10:33:47;12.20;99.90
20125;DHT22;10223;50.862;4.360;2023-01-05T10:36:26;12.20;99.90
20125;DHT22;10223;50.862;4.360;2023-01-05T10:39:01;12.30;99.90
20125;DHT22;10223;50.862;4.360;2023-01-05T10:41:37;12.40;99.90
20125;DHT22;10223;50.862;4.360;2023-01-05T10:47:08;12.40;99.90
20125;DHT22;10223;50.862;4.360;2023-01-05T10:49:39;12.40;99.90
20125;DHT22;10223;50.862;4.360;2023-01-05T10:52:11;12.40;99.90
20125;DHT22;10223;50.862;4.360;2023-01-05T10:54:43;12.40;99.90
20125;DHT22;10223;50.862;4.360;2023-01-05T10:57:30;12.30;99.90
20125;DHT22;10223;50.862;4.360;2023-01-05T10:59:59;12.30;99.90
20125;DHT22;10223;50.862;4.360;2023-01-05T11:02:28;12.40;99.90
20125;DHT22;10223;50.862;4.360;2023-01-05T11:04:59;12.40;99.90
20125;DHT22;10223;50.862;4.360;2023-01-05T11:07:28;12.60;99.90
20125;DHT22;10223;50.862;4.360;2023-01-05T11:09:56;12.60;99.90
20125;DHT22;10223;50.862;4.360;2023-01-05T11:12:24;12.60;99.90
20125;DHT22;10223;50.862;4.360;2023-01-05T11:14:53;12.60;99.90
20125;DHT22;10223;50.862;4.360;2023-01-05T11:17:22;12.50;99.90
20125;DHT22;10223;50.862;4.360;2023-01-05T11:19:51;12.60;99.90
20125;DHT22;10223;50.862;4.360;2023-01-05T11:22:29;12.60;99.90
20125;DHT22;10223;50.862;4.360;2023-01-05T11:25:28;12.70;99.90
20125;DHT22;10223;50.862;4.360;2023-01-05T11:28:16;12.60;99.90
20125;DHT22;10223;50.862;4.360;2023-01-05T11:30:56;12.70;99.90
20125;DHT22;10223;50.862;4.360;2023-01-05T11:33:26;12.60;99.90
20125;DHT22;10223;50.862;4.360;2023-01-05T11:35:55;12.50;99.90
20125;DHT22;10223;50.862;4.360;2023-01-05T11:38:24;12.50;99.90
20125;DHT22;10223;50.862;4.360;2023-01-05T11:40:53;12.40;99.90
20125;DHT22;10223;50.862;4.360;2023-01-05T11:43:23;12.40;99.90
20125;DHT22;10223;50.862;4.360;2023-01-05T11:45:52;12.40;99.90
20125;DHT22;10223;50.862;4.360;2023-01-05T11:48:22;12.40;99.90
20125;DHT22;10223;50.862;4.360;2023-01-05T11:50:52;12.40;99.90
20125;DHT22;10223;50.862;4.360;2023-01-05T11:53:24;12.40;99.90
20125;DHT22;10223;50.862;4.360;2023-01-05T11:56:00;12.50;99.90
20125;DHT22;10223;50.862;4.360;2023-01-05T11:58:31;12.50;99.90
20125;DHT22;10223;50.862;4.360;2023-01-05T12:04:28;12.40;99.90
20125;DHT22;10223;50.862;4.360;2023-01-05T12:07:10;12.40;99.90
20125;DHT22;10223;50.862;4.360;2023-01-05T12:09:41;12.40;99.90
20125;DHT22;10223;50.862;4.360;2023-01-05T12:12:22;12.40;99.90
20125;DHT22;10223;50.862;4.360;2023-01-05T12:15:01;12.40;99.90
20125;DHT22;10223;50.862;4.360;2023-01-05T12:17:39;12.40;99.90
20125;DHT22;10223;50.862;4.360;2023-01-05T12:20:29;12.50;99.90
20125;DHT22;10223;50.862;4.360;2023-01-05T12:23:14;12.50;99.90
20125;DHT22;10223;50.862;4.360;2023-01-05T12:25:53;12.50;99.90
20125;DHT22;10223;50.862;4.360;2023-01-05T12:28:30;12.50;99.90
20125;DHT22;10223;50.862;4.360;2023-01-05T12:31:28;12.40;99.90
20125;DHT22;10223;50.862;4.360;2023-01-05T12:34:10;12.40;99.90
20125;DHT22;10223;50.862;4.360;2023-01-05T12:36:55;12.50;99.90
20125;DHT22;10223;50.862;4.360;2023-01-05T12:39:42;12.50;99.90
20125;DHT22;10223;50.862;4.360;2023-01-05T12:42:32;12.40;99.90
20125;DHT22;10223;50.862;4.360;2023-01-05T12:45:27;12.20;99.90
20125;DHT22;10223;50.862;4.360;2023-01-05T12:47:58;12.20;99.90
20125;DHT22;10223;50.862;4.360;2023-01-05T12:50:30;12.20;99.90
20125;DHT22;10223;50.862;4.360;2023-01-05T12:53:06;12.20;99.90
20125;DHT22;10223;50.862;4.360;2023-01-05T12:55:38;12.20;99.90
20125;DHT22;10223;50.862;4.360;2023-01-05T12:58:11;12.20;99.90
20125;DHT22;10223;50.862;4.360;2023-01-05T13:00:40;12.20;99.90
20125;DHT22;10223;50.862;4.360;2023-01-05T13:03:18;12.30;99.90
20125;DHT22;10223;50.862;4.360;2023-01-05T13:05:53;12.40;99.90
20125;DHT22;10223;50.862;4.360;2023-01-05T13:08:25;12.40;99.90
20125;DHT22;10223;50.862;4.360;2023-01-05T13:10:58;12.30;99.90
20125;DHT22;10223;50.862;4.360;2023-01-05T13:13:30;12.30;99.90
20125;DHT22;10223;50.862;4.360;2023-01-05T13:16:03;12.30;99.90
20125;DHT22;10223;50.862;4.360;2023-01-05T13:18:35;12.40;99.90
20125;DHT22;10223;50.862;4.360;2023-01-05T13:21:04;12.30;99.90
20125;DHT22;10223;50.862;4.360;2023-01-05T13:23:35;12.30;99.90
20125;DHT22;10223;50.862;4.360;2023-01-05T13:26:13;12.20;99.90
20125;DHT22;10223;50.862;4.360;2023-01-05T13:28:41;12.30;99.90
20125;DHT22;10223;50.862;4.360;2023-01-05T13:31:34;12.20;99.90
20125;DHT22;10223;50.862;4.360;2023-01-05T13:34:21;12.10;99.90
20125;DHT22;10223;50.862;4.360;2023-01-05T13:37:17;12.00;99.90
20125;DHT22;10223;50.862;4.360;2023-01-05T13:39:59;11.90;99.90
20125;DHT22;10223;50.862;4.360;2023-01-05T13:42:39;11.80;99.90
20125;DHT22;10223;50.862;4.360;2023-01-05T13:45:26;11.80;99.90
20125;DHT22;10223;50.862;4.360;2023-01-05T13:48:13;11.80;99.90
20125;DHT22;10223;50.862;4.360;2023-01-05T13:51:10;11.80;99.90
20125;DHT22;10223;50.862;4.360;2023-01-05T13:53:40;11.80;99.90
20125;DHT22;10223;50.862;4.360;2023-01-05T13:56:13;11.80;99.90
20125;DHT22;10223;50.862;4.360;2023-01-05T13:58:44;11.70;99.90
20125;DHT22;10223;50.862;4.360;2023-01-05T14:01:14;11.80;99.90
20125;DHT22;10223;50.862;4.360;2023-01-05T14:03:49;11.70;99.90
20125;DHT22;10223;50.862;4.360;2023-01-05T14:06:20;11.70;99.90
20125;DHT22;10223;50.862;4.360;2023-01-05T14:08:52;11.70;99.90
20125;DHT22;10223;50.862;4.360;2023-01-05T14:11:21;11.70;99.90
20125;DHT22;10223;50.862;4.360;2023-01-05T14:13:51;11.70;99.90
20125;DHT22;10223;50.862;4.360;2023-01-05T14:16:50;11.70;99.90
20125;DHT22;10223;50.862;4.360;2023-01-05T14:22:34;11.60;99.90
20125;DHT22;10223;50.862;4.360;2023-01-05T14:28:42;11.70;99.90
20125;DHT22;10223;50.862;4.360;2023-01-05T14:34:16;11.70;99.90
20125;DHT22;10223;50.862;4.360;2023-01-05T14:36:50;11.80;99.90
20125;DHT22;10223;50.862;4.360;2023-01-05T14:39:28;11.70;99.90
20125;DHT22;10223;50.862;4.360;2023-01-05T14:42:03;11.80;99.90
20125;DHT22;10223;50.862;4.360;2023-01-05T14:44:35;11.70;99.90
20125;DHT22;10223;50.862;4.360;2023-01-05T14:47:06;11.80;99.90
20125;DHT22;10223;50.862;4.360;2023-01-05T14:49:36;11.80;99.90
20125;DHT22;10223;50.862;4.360;2023-01-05T14:52:09;12.00;99.90
20125;DHT22;10223;50.862;4.360;2023-01-05T14:55:09;11.90;99.90
20125;DHT22;10223;50.862;4.360;2023-01-05T14:57:45;11.90;99.90
20125;DHT22;10223;50.862;4.360;2023-01-05T15:00:15;12.00;99.90
20125;DHT22;10223;50.862;4.360;2023-01-05T15:02:57;12.00;99.90
20125;DHT22;10223;50.862;4.360;2023-01-05T15:05:25;12.00;99.90
20125;DHT22;10223;50.862;4.360;2023-01-05T15:08:05;12.10;99.90
20125;DHT22;10223;50.862;4.360;2023-01-05T15:10:54;12.10;99.90
20125;DHT22;10223;50.862;4.360;2023-01-05T15:13:49;12.10;99.90
20125;DHT22;10223;50.862;4.360;2023-01-05T15:16:51;12.10;99.90
20125;DHT22;10223;50.862;4.360;2023-01-05T15:19:47;12.10;99.90
20125;DHT22;10223;50.862;4.360;2023-01-05T15:22:35;12.10;99.90
20125;DHT22;10223;50.862;4.360;2023-01-05T15:28:31;12.10;99.90
20125;DHT22;10223;50.862;4.360;2023-01-05T15:31:17;12.10;99.90
20125;DHT22;10223;50.862;4.360;2023-01-05T15:33:50;12.10;99.90
20125;DHT22;10223;50.862;4.360;2023-01-05T15:36:24;12.10;99.90
20125;DHT22;10223;50.862;4.360;2023-01-05T15:38:51;12.10;99.90
20125;DHT22;10223;50.862;4.360;2023-01-05T15:41:20;12.20;99.90
20125;DHT22;10223;50.862;4.360;2023-01-05T15:43:50;12.20;99.90
20125;DHT22;10223;50.862;4.360;2023-01-05T15:46:19;12.20;99.90
20125;DHT22;10223;50.862;4.360;2023-01-05T15:48:49;12.20;99.90
20125;DHT22;10223;50.862;4.360;2023-01-05T15:51:24;12.20;99.90
20125;DHT22;10223;50.862;4.360;2023-01-05T15:53:54;12.30;99.90
20125;DHT22;10223;50.862;4.360;2023-01-05T15:56:28;12.30;99.90
20125;DHT22;10223;50.862;4.360;2023-01-05T15:58:57;12.30;99.90
20125;DHT22;10223;50.862;4.360;2023-01-05T16:01:24;12.10;99.90
20125;DHT22;10223;50.862;4.360;2023-01-05T16:04:04;12.10;99.90
20125;DHT22;10223;50.862;4.360;2023-01-05T16:06:31;12.10;99.90
20125;DHT22;10223;50.862;4.360;2023-01-05T16:09:07;12.20;99.90
20125;DHT22;10223;50.862;4.360;2023-01-05T16:11:38;12.10;99.90
20125;DHT22;10223;50.862;4.360;2023-01-05T16:14:11;12.10;99.90
20125;DHT22;10223;50.862;4.360;2023-01-05T16:16:43;12.00;99.90
20125;DHT22;10223;50.862;4.360;2023-01-05T16:19:14;12.00;99.90
20125;DHT22;10223;50.862;4.360;2023-01-05T16:21:47;12.10;99.90